Time;durP1;ratioP1;P1;durP2;ratioP2;P2;SDS_P1;SDS_P2;PMS_P1;PMS_P2;Temp;Humidity;BMP_temperature;BMP_pressure;BME280_temperature;BME280_humidity;BME280_pressure;Samples;Min_cycle;Max_cycle;Signal;HPM_P1;HPM_P2
2023/09/11 00:01:50;;;;;;;;;6.50;6.00;;;;;-143.90;89.17;74725.69;4923418;28;102028;-75
2023/09/11 00:04:17;;;;;;;;;6.75;6.00;;;;;-143.90;90.21;74729.81;4914648;28;101973;-74
2023/09/11 00:06:44;;;;;;;;;6.00;5.00;;;;;-143.90;90.47;74731.88;4933839;28;109543;-75
2023/09/11 00:09:11;;;;;;;;;5.25;5.00;;;;;-143.90;90.85;74738.09;4901330;28;103760;-75
2023/09/11 00:11:37;;;;;;;;;6.00;5.25;;;;;-143.90;91.42;74738.09;4928333;28;102490;-73
2023/09/11 00:14:04;;;;;;;;;4.75;3.75;;;;;-143.90;91.14;74738.09;4947284;28;102000;-74
2023/09/11 00:16:31;;;;;;;;;6.00;4.50;;;;;-143.90;92.99;74744.28;4927725;28;104258;-74
2023/09/11 00:18:58;;;;;;;;;4.00;4.00;;;;;-143.90;93.72;74744.28;4918851;28;103229;-74
2023/09/11 00:21:24;;;;;;;;;7.25;6.00;;;;;-143.90;94.29;74752.56;4923472;28;102624;-74
2023/09/11 00:23:51;;;;;;;;;5.75;5.75;;;;;-143.90;94.34;74750.50;4931248;28;102327;-73
2023/09/11 00:26:17;;;;;;;;;5.00;5.00;;;;;-143.90;94.39;74742.22;4946017;28;104109;-74
2023/09/11 00:28:44;;;;;;;;;6.25;6.25;;;;;-143.90;95.66;74744.28;4934417;28;103526;-74
2023/09/11 00:31:11;;;;;;;;;9.00;8.00;;;;;-143.90;96.75;74748.44;4929713;28;102585;-74
2023/09/11 00:33:37;;;;;;;;;12.25;9.00;;;;;-143.90;97.37;74750.50;4931234;28;104790;-75
2023/09/11 00:36:04;;;;;;;;;10.50;10.50;;;;;-143.90;97.94;74750.50;4927667;28;103703;-74
2023/09/11 00:38:31;;;;;;;;;15.50;14.25;;;;;-143.90;98.15;74754.63;4928203;28;103098;-75
2023/09/11 00:40:58;;;;;;;;;8.75;8.00;;;;;-143.90;97.93;74746.34;4926569;28;102123;-75
2023/09/11 00:43:24;;;;;;;;;9.75;8.50;;;;;-143.90;97.28;74740.16;4930444;28;102311;-74
2023/09/11 00:45:51;;;;;;;;;8.50;8.25;;;;;-143.90;95.35;74742.22;4930020;28;104143;-73
2023/09/11 00:48:19;;;;;;;;;10.00;9.00;;;;;-143.90;92.99;74748.44;4928721;28;103738;-74
2023/09/11 00:50:46;;;;;;;;;9.00;8.00;;;;;-143.90;92.15;74750.50;4926171;28;102373;-75
2023/09/11 00:53:13;;;;;;;;;6.00;6.00;;;;;-143.90;91.98;74748.44;4941716;28;103526;-75
2023/09/11 00:55:44;;;;;;;;;7.50;6.00;;;;;-143.90;91.49;74754.63;4930142;28;104109;-75
2023/09/11 00:58:12;;;;;;;;;6.25;6.25;;;;;-143.90;91.30;74754.63;4933123;28;102130;-75
2023/09/11 01:00:39;;;;;;;;;5.50;5.00;;;;;-143.90;91.01;74767.03;4925936;28;102367;-75
2023/09/11 01:03:06;;;;;;;;;6.00;6.00;;;;;-143.90;91.32;74771.16;4929958;28;102472;-75
2023/09/11 01:05:35;;;;;;;;;6.75;6.50;;;;;-143.90;91.12;74771.16;4929662;28;105464;-75
2023/09/11 01:08:02;;;;;;;;;7.50;6.00;;;;;-143.90;91.71;74777.38;4927054;28;102032;-75
2023/09/11 01:10:29;;;;;;;;;5.00;5.00;;;;;-143.90;91.61;74775.31;4933080;28;102425;-75
2023/09/11 01:12:56;;;;;;;;;2.75;2.00;;;;;-143.90;91.49;74777.38;4934389;28;102182;-75
2023/09/11 01:15:32;;;;;;;;;5.00;5.00;;;;;-143.90;91.54;74771.16;4928517;28;106100;-75
2023/09/11 01:18:05;;;;;;;;;2.75;2.75;;;;;-143.90;92.36;74777.38;4928920;28;102357;-75
2023/09/11 01:20:48;;;;;;;;;4.50;4.00;;;;;-143.90;94.89;74779.44;4926574;28;104963;-75
2023/09/11 01:23:39;;;;;;;;;7.25;7.25;;;;;-143.90;95.74;74783.56;4928209;28;102378;-75
2023/09/11 01:26:41;;;;;;;;;9.25;9.00;;;;;-143.90;95.53;74787.69;4916250;28;108054;-75
2023/09/11 01:29:14;;;;;;;;;9.00;8.25;;;;;-143.90;94.61;74793.91;4920757;28;102403;-75
2023/09/11 01:31:44;;;;;;;;;7.75;7.00;;;;;-143.90;93.88;74793.91;4926093;28;103322;-75
2023/09/11 01:34:11;;;;;;;;;8.25;8.25;;;;;-143.90;92.67;74806.31;4929178;28;102210;-75
2023/09/11 01:36:38;;;;;;;;;5.75;5.50;;;;;-143.90;92.63;74808.38;4927996;28;104120;-75
2023/09/11 01:39:05;;;;;;;;;8.25;8.00;;;;;-143.90;92.39;74820.78;4934035;28;102252;-75
2023/09/11 01:41:39;;;;;;;;;6.75;6.75;;;;;-143.90;92.26;74820.78;4935151;28;103172;-75
2023/09/11 01:44:25;;;;;;;;;8.25;7.25;;;;;-143.90;91.91;74824.91;4925827;28;102090;-75
2023/09/11 01:46:55;;;;;;;;;7.75;7.25;;;;;-143.90;91.39;74831.13;4928249;28;108776;-74
2023/09/11 01:49:24;;;;;;;;;8.00;8.00;;;;;-143.90;91.24;74833.19;4932852;28;102224;-74
2023/09/11 01:51:54;;;;;;;;;5.00;5.00;;;;;-143.90;91.48;74841.44;4928574;28;103406;-74
2023/09/11 01:54:22;;;;;;;;;5.75;5.75;;;;;-143.90;91.36;74845.59;4935886;28;103537;-74
2023/09/11 01:56:48;;;;;;;;;5.50;5.50;;;;;-143.90;91.99;74849.72;4933619;28;104027;-74
2023/09/11 01:59:15;;;;;;;;;5.50;5.00;;;;;-143.90;92.41;74858.00;4933277;28;102087;-75
2023/09/11 02:01:45;;;;;;;;;5.75;4.75;;;;;-143.90;92.80;74860.06;4929771;28;102122;-75
2023/09/11 02:04:11;;;;;;;;;5.00;5.00;;;;;-143.90;92.40;74860.06;4929303;28;103996;-75
2023/09/11 02:06:38;;;;;;;;;8.00;7.00;;;;;-143.90;93.52;74862.13;4930005;28;104267;-75
2023/09/11 02:09:05;;;;;;;;;6.00;6.00;;;;;-143.90;94.10;74876.59;4927998;28;101916;-75
2023/09/11 02:11:32;;;;;;;;;6.25;5.75;;;;;-143.90;94.85;74874.53;4932381;28;103790;-75
2023/09/11 02:13:58;;;;;;;;;6.75;5.50;;;;;-143.90;95.74;74882.78;4931626;28;102589;-75
2023/09/11 02:16:25;;;;;;;;;7.00;6.00;;;;;-143.90;96.10;74889.00;4933964;28;104101;-75
2023/09/11 02:18:51;;;;;;;;;4.25;4.25;;;;;-143.90;96.01;74886.94;4950754;28;102031;-75
2023/09/11 02:21:18;;;;;;;;;5.75;5.75;;;;;-143.90;96.14;74891.06;4933344;28;103465;-75
2023/09/11 02:23:45;;;;;;;;;9.00;7.00;;;;;-143.90;95.36;74891.06;4926981;28;101967;-75
2023/09/11 02:26:13;;;;;;;;;7.00;6.50;;;;;-143.90;95.45;74889.00;4932299;28;103641;-76
2023/09/11 02:28:40;;;;;;;;;6.50;6.00;;;;;-143.90;95.23;74891.06;4922412;28;102865;-76
2023/09/11 02:31:07;;;;;;;;;7.75;6.00;;;;;-143.90;95.01;74889.00;4925799;28;103530;-76
2023/09/11 02:33:34;;;;;;;;;2.25;2.25;;;;;-143.90;94.63;74901.41;4928555;28;102465;-75
2023/09/11 02:36:01;;;;;;;;;4.75;3.25;;;;;-143.90;94.16;74901.41;4928688;28;104196;-74
2023/09/11 02:38:27;;;;;;;;;6.00;5.25;;;;;-143.90;92.21;74903.47;4931195;28;102202;-75
2023/09/11 02:40:54;;;;;;;;;3.50;3.50;;;;;-143.90;91.49;74907.59;4918126;28;102086;-74
2023/09/11 02:43:35;;;;;;;;;3.00;2.75;;;;;-143.90;91.94;74920.00;4930203;28;102188;-75
2023/09/11 02:46:02;;;;;;;;;8.75;8.75;;;;;-143.90;93.82;74953.09;4922189;28;104396;-75
2023/09/11 02:48:28;;;;;;;;;12.75;11.50;;;;;-143.90;97.15;74971.69;4928998;28;103609;-75
2023/09/11 02:50:55;;;;;;;;;16.75;15.50;;;;;-143.90;98.65;74990.28;4928744;28;102768;-75
2023/09/11 02:53:22;;;;;;;;;16.00;13.00;;;;;-143.90;98.61;74982.03;4927794;28;102794;-74
2023/09/11 02:55:49;;;;;;;;;10.75;10.50;;;;;-143.90;98.60;74969.63;4949774;28;104436;-73
2023/09/11 02:58:15;;;;;;;;;9.75;9.00;;;;;-143.90;98.32;74969.63;4935235;28;101814;-75
2023/09/11 03:00:42;;;;;;;;;7.25;7.00;;;;;-143.90;97.57;74965.50;4934120;28;102053;-75
2023/09/11 03:03:09;;;;;;;;;8.75;8.25;;;;;-143.90;97.93;74971.69;4934470;28;102481;-75
2023/09/11 03:05:36;;;;;;;;;9.25;9.00;;;;;-143.90;97.09;74969.63;4936953;28;104079;-75
2023/09/11 03:08:04;;;;;;;;;7.00;7.00;;;;;-143.90;96.49;74965.50;4930822;28;102263;-74
2023/09/11 03:10:32;;;;;;;;;12.00;11.00;;;;;-143.90;96.01;74971.69;4941970;28;102103;-74
2023/09/11 03:12:59;;;;;;;;;14.75;13.50;;;;;-143.90;95.32;74982.03;4932340;28;102306;-74
2023/09/11 03:15:30;;;;;;;;;14.00;12.25;;;;;-143.90;96.20;74990.28;4935146;28;103422;-76
2023/09/11 03:17:57;;;;;;;;;12.00;10.50;;;;;-143.90;97.46;74994.44;4931036;28;102184;-75
2023/09/11 03:20:24;;;;;;;;;13.00;10.75;;;;;-143.90;97.33;74992.38;4930615;28;102412;-75
2023/09/11 03:22:50;;;;;;;;;16.00;14.50;;;;;-143.90;96.93;74982.03;4932344;28;102267;-75
2023/09/11 03:25:17;;;;;;;;;13.50;13.00;;;;;-143.90;97.29;74979.97;4935268;28;104292;-75
2023/09/11 03:27:44;;;;;;;;;17.75;16.75;;;;;-143.90;96.82;74982.03;4930908;28;102475;-75
2023/09/11 03:30:11;;;;;;;;;13.75;13.00;;;;;-143.90;97.97;74979.97;4925191;28;103102;-76
2023/09/11 03:32:39;;;;;;;;;12.00;10.50;;;;;-143.90;98.46;74967.56;4929987;28;102207;-76
2023/09/11 03:35:06;;;;;;;;;9.00;8.00;;;;;-143.90;98.86;74967.56;4928022;28;105252;-76
2023/09/11 03:37:33;;;;;;;;;12.00;11.75;;;;;-143.90;99.47;74965.50;4931267;28;102294;-76
2023/09/11 03:40:00;;;;;;;;;12.25;9.25;;;;;-143.90;99.85;74961.34;4931669;28;103252;-76
2023/09/11 03:42:27;;;;;;;;;8.00;7.25;;;;;-143.90;100.00;74957.22;4932220;28;103543;-76
2023/09/11 03:44:54;;;;;;;;;7.25;7.25;;;;;-143.90;100.00;74946.88;4923954;28;104496;-75
2023/09/11 03:47:21;;;;;;;;;9.00;9.00;;;;;-143.90;98.79;74940.69;4927434;28;102308;-75
2023/09/11 03:49:48;;;;;;;;;11.00;9.00;;;;;-143.90;98.57;74942.75;4935250;28;102330;-76
2023/09/11 03:52:14;;;;;;;;;7.25;7.00;;;;;-143.90;97.78;74948.94;4943013;28;102097;-76
2023/09/11 03:54:41;;;;;;;;;7.25;7.25;;;;;-143.90;97.47;74942.75;4934659;28;104117;-76
2023/09/11 03:57:08;;;;;;;;;4.00;4.00;;;;;-143.90;96.75;74944.81;4925714;28;103971;-76
2023/09/11 03:59:34;;;;;;;;;5.00;5.00;;;;;-143.90;97.29;74951.00;4932902;28;102601;-75
2023/09/11 04:02:01;;;;;;;;;8.00;6.25;;;;;-143.90;97.48;74946.88;4932905;28;102769;-75
2023/09/11 04:04:28;;;;;;;;;6.75;5.75;;;;;-143.90;97.54;74953.09;4934469;28;104083;-75
2023/09/11 04:06:56;;;;;;;;;8.25;7.50;;;;;-143.90;98.17;74961.34;4939778;28;102190;-74
2023/09/11 04:09:22;;;;;;;;;13.00;11.50;;;;;-143.90;99.12;74969.63;4946396;28;102507;-74
2023/09/11 04:11:49;;;;;;;;;14.00;11.75;;;;;-143.90;99.00;74973.75;4931836;28;106717;-75
2023/09/11 04:14:16;;;;;;;;;10.50;8.50;;;;;-143.90;98.92;74969.63;4928989;28;109372;-75
2023/09/11 04:16:43;;;;;;;;;11.50;10.75;;;;;-143.90;98.80;74959.28;4925151;28;103449;-75
2023/09/11 04:19:11;;;;;;;;;9.00;9.00;;;;;-143.90;99.04;74951.00;4931668;28;102409;-76
2023/09/11 04:21:40;;;;;;;;;8.00;7.00;;;;;-143.90;98.13;74957.22;4933949;28;103936;-75
2023/09/11 04:24:12;;;;;;;;;7.00;7.00;;;;;-143.90;96.86;74953.09;4931524;28;104289;-76
2023/09/11 04:26:40;;;;;;;;;6.50;5.75;;;;;-143.90;96.27;74957.22;4932076;28;105771;-75
2023/09/11 04:29:10;;;;;;;;;6.00;6.00;;;;;-143.90;95.11;74953.09;4932092;28;103408;-74
2023/09/11 04:31:38;;;;;;;;;7.25;6.50;;;;;-143.90;95.52;74961.34;4932351;28;102118;-76
2023/09/11 04:34:05;;;;;;;;;4.00;3.75;;;;;-143.90;95.75;74961.34;4927196;28;104110;-76
2023/09/11 04:36:32;;;;;;;;;5.00;5.00;;;;;-143.90;96.99;74961.34;4945979;28;104285;-75
2023/09/11 04:38:58;;;;;;;;;5.25;4.75;;;;;-143.90;96.46;74957.22;4925724;28;102693;-75
2023/09/11 04:41:25;;;;;;;;;4.50;4.50;;;;;-143.90;95.83;74953.09;4933411;28;102245;-75
2023/09/11 04:43:52;;;;;;;;;4.50;4.50;;;;;-143.90;95.24;74946.88;4929260;28;104480;-75
2023/09/11 04:46:19;;;;;;;;;4.25;4.25;;;;;-143.90;94.91;74948.94;4932766;28;101924;-75
2023/09/11 04:48:45;;;;;;;;;6.00;4.25;;;;;-143.90;94.11;74944.81;4933924;28;102054;-75
2023/09/11 04:51:12;;;;;;;;;5.50;4.25;;;;;-143.90;94.38;74942.75;4921670;28;102493;-75
2023/09/11 04:53:39;;;;;;;;;6.00;5.00;;;;;-143.90;93.68;74940.69;4928685;28;104357;-75
2023/09/11 04:56:06;;;;;;;;;5.75;5.00;;;;;-143.90;94.11;74936.53;4930312;28;103572;-75
2023/09/11 04:58:32;;;;;;;;;7.00;7.00;;;;;-143.90;94.24;74928.28;4926762;28;101984;-75
2023/09/11 05:00:59;;;;;;;;;7.00;7.00;;;;;-143.90;94.91;74924.13;4946595;28;104253;-75
2023/09/11 05:03:26;;;;;;;;;8.50;7.50;;;;;-143.90;94.99;74924.13;4932616;28;103276;-75
2023/09/11 05:05:53;;;;;;;;;6.75;5.75;;;;;-143.90;94.84;74915.88;4931720;28;102456;-75
2023/09/11 05:08:19;;;;;;;;;6.00;4.75;;;;;-143.90;95.58;74915.88;4926756;28;103265;-74
2023/09/11 05:10:46;;;;;;;;;5.75;5.25;;;;;-143.90;95.76;74907.59;4935215;28;102489;-75
2023/09/11 05:13:13;;;;;;;;;5.25;5.25;;;;;-143.90;96.29;74903.47;4939274;28;103048;-73
2023/09/11 05:15:40;;;;;;;;;4.25;3.50;;;;;-143.90;96.57;74891.06;4937991;28;102474;-74
2023/09/11 05:18:07;;;;;;;;;5.25;5.25;;;;;-143.90;96.60;74880.72;4939800;28;102098;-74
2023/09/11 05:20:34;;;;;;;;;4.50;3.75;;;;;-143.90;96.23;74872.47;4937601;28;102200;-74
2023/09/11 05:23:00;;;;;;;;;4.25;4.00;;;;;-143.90;96.52;74851.78;4915115;28;104211;-74
2023/09/11 05:25:27;;;;;;;;;7.00;6.00;;;;;-143.90;96.51;74849.72;4907885;28;101889;-74
2023/09/11 05:27:53;;;;;;;;;2.50;2.50;;;;;-143.90;96.43;74837.31;4916384;28;103173;-74
2023/09/11 05:30:20;;;;;;;;;1.25;1.25;;;;;-143.90;96.48;74831.13;4929945;28;102029;-74
2023/09/11 05:32:51;;;;;;;;;5.00;5.00;;;;;-143.90;96.99;74816.66;4920168;28;104213;-74
2023/09/11 05:35:21;;;;;;;;;4.75;4.00;;;;;-143.90;98.07;74802.16;4913848;28;103045;-74
2023/09/11 05:37:47;;;;;;;;;4.50;4.50;;;;;-143.90;98.82;74785.63;4910691;28;104265;-74
2023/09/11 05:40:14;;;;;;;;;10.00;7.50;;;;;-143.90;99.81;74775.31;4916801;28;102075;-75
2023/09/11 05:42:41;;;;;;;;;10.25;9.00;;;;;-143.90;99.97;74760.81;4891941;28;105256;-75
2023/09/11 05:45:08;;;;;;;;;11.75;10.75;;;;;-143.90;99.60;74754.63;4912108;28;102038;-75
2023/09/11 05:47:38;;;;;;;;;12.25;10.75;;;;;-143.90;99.29;74733.97;4889391;28;102301;-74
2023/09/11 05:50:06;;;;;;;;;10.25;10.25;;;;;-143.90;99.14;74719.47;4915570;28;102384;-73
2023/09/11 05:52:34;;;;;;;;;12.75;11.25;;;;;-143.90;99.55;74698.81;4910954;28;104170;-75
2023/09/11 05:55:00;;;;;;;;;7.25;7.25;;;;;-143.90;99.48;74676.06;4915295;28;104116;-74
2023/09/11 05:57:27;;;;;;;;;11.00;10.75;;;;;-143.90;99.44;74669.88;4917568;28;102313;-74
2023/09/11 05:59:54;;;;;;;;;12.50;10.50;;;;;-143.90;98.41;74628.53;4916342;28;102257;-75
2023/09/11 06:02:20;;;;;;;;;9.00;8.75;;;;;-143.90;98.11;74607.84;4914914;28;104047;-74
2023/09/11 06:04:47;;;;;;;;;9.25;8.50;;;;;-143.90;97.24;74576.84;4920019;28;102209;-74
2023/09/11 06:07:14;;;;;;;;;5.50;5.00;;;;;-143.90;96.97;74566.53;4910825;28;102711;-74
2023/09/11 06:09:40;;;;;;;;;7.25;7.25;;;;;-143.90;96.92;74529.31;4916731;28;102655;-73
2023/09/11 06:12:07;;;;;;;;;6.75;6.75;;;;;-143.90;96.84;74500.38;4897867;28;105479;-74
2023/09/11 06:14:37;;;;;;;;;4.50;4.50;;;;;-143.90;95.86;74477.63;4906743;28;102321;-74
2023/09/11 06:17:05;;;;;;;;;6.75;6.25;;;;;-143.90;94.75;74454.91;4914354;28;105372;-74
2023/09/11 06:19:31;;;;;;;;;6.00;5.67;;;;;-143.90;95.11;74438.38;4909397;28;102094;-74
2023/09/11 06:21:58;;;;;;;;;7.00;7.00;;;;;-143.90;93.21;74407.34;4916167;28;104219;-74
2023/09/11 06:24:25;;;;;;;;;9.50;9.50;;;;;-143.90;92.77;74378.41;4905313;28;102905;-75
2023/09/11 06:27:03;;;;;;;;;11.75;11.00;;;;;-143.90;91.56;74337.06;4902367;28;102276;-74
2023/09/11 06:29:29;;;;;;;;;7.00;7.00;;;;;-143.90;88.94;74295.75;4906926;28;102328;-74
2023/09/11 06:31:56;;;;;;;;;8.67;8.00;;;;;-143.90;87.49;74252.34;4913725;28;104113;-73
2023/09/11 06:34:23;;;;;;;;;11.00;10.25;;;;;-143.90;84.96;74227.53;4907970;28;102449;-74
2023/09/11 06:36:52;;;;;;;;;12.00;11.67;;;;;-143.90;83.71;74186.19;4895319;28;102041;-74
2023/09/11 06:39:20;;;;;;;;;9.00;8.33;;;;;-143.90;82.72;74163.47;4915919;28;101995;-74
2023/09/11 06:41:47;;;;;;;;;12.00;11.00;;;;;-143.90;81.01;74134.53;4913255;28;108708;-74
2023/09/11 06:44:13;;;;;;;;;12.00;11.00;;;;;-143.90;78.32;74109.72;4911927;28;102559;-74
2023/09/11 06:46:40;;;;;;;;;9.67;9.00;;;;;-143.90;77.80;74089.06;4914058;28;103747;-75
2023/09/11 06:49:07;;;;;;;;;8.33;8.00;;;;;-143.90;77.04;74074.59;4909712;28;102551;-74
2023/09/11 06:51:34;;;;;;;;;9.67;8.00;;;;;-143.90;76.89;74062.19;4891799;28;104053;-74
2023/09/11 06:54:03;;;;;;;;;9.00;7.00;;;;;-143.90;76.06;74055.97;4907572;28;103358;-74
2023/09/11 06:56:32;;;;;;;;;10.00;10.00;;;;;-143.90;74.78;74039.44;4903887;28;102565;-74
2023/09/11 06:58:59;;;;;;;;;6.33;5.33;;;;;-143.90;75.03;74033.25;4905675;28;102011;-74
2023/09/11 07:01:26;;;;;;;;;8.00;8.00;;;;;-143.90;75.60;74018.78;4907038;28;105509;-74
2023/09/11 07:03:52;;;;;;;;;9.00;8.33;;;;;-143.90;75.94;74018.78;4907652;28;102327;-74
2023/09/11 07:06:20;;;;;;;;;7.33;7.33;;;;;-143.90;73.82;74008.44;4895884;28;102385;-75
2023/09/11 07:08:47;;;;;;;;;7.00;7.00;;;;;-143.90;73.77;74000.19;4896664;28;102544;-76
2023/09/11 07:11:17;;;;;;;;;7.00;5.00;;;;;-143.90;73.96;73991.91;4909161;28;103059;-73
2023/09/11 07:13:44;;;;;;;;;8.00;6.00;;;;;-143.90;73.77;73981.56;4902215;28;102414;-74
2023/09/11 07:16:10;;;;;;;;;6.67;6.00;;;;;-143.90;72.90;73962.97;4912536;28;102012;-73
2023/09/11 07:18:37;;;;;;;;;8.67;7.67;;;;;-143.90;73.01;73952.63;4892006;28;102932;-74
2023/09/11 07:21:07;;;;;;;;;8.00;7.33;;;;;-143.90;73.07;73936.09;4907135;28;104138;-74
2023/09/11 07:23:33;;;;;;;;;6.67;6.67;;;;;-143.90;71.93;73931.97;4913874;28;103021;-74
2023/09/11 07:26:00;;;;;;;;;4.67;4.67;;;;;-143.90;72.83;73923.72;4903796;28;102290;-74
2023/09/11 07:28:27;;;;;;;;;7.00;5.67;;;;;-143.90;74.03;73913.38;4914169;28;101975;-74
2023/09/11 07:30:54;;;;;;;;;7.00;7.00;;;;;-143.90;72.00;73911.31;4900538;28;104449;-73
2023/09/11 07:33:21;;;;;;;;;8.67;7.33;;;;;-143.90;72.83;73896.84;4915109;28;101983;-72
2023/09/11 07:35:48;;;;;;;;;3.67;3.00;;;;;-143.90;71.86;73878.25;4919077;28;102472;-74
2023/09/11 07:38:16;;;;;;;;;8.00;8.00;;;;;-143.90;71.96;73865.84;4914386;28;102012;-74
2023/09/11 07:40:43;;;;;;;;;8.67;8.67;;;;;-143.90;71.18;73857.56;4913283;28;104123;-74
2023/09/11 07:43:11;;;;;;;;;7.00;7.00;;;;;-143.90;69.96;73849.31;4907981;28;101758;-73
2023/09/11 07:45:37;;;;;;;;;8.67;8.67;;;;;-143.90;69.77;73849.31;4908888;28;102443;-74
2023/09/11 07:48:04;;;;;;;;;9.00;9.00;;;;;-143.90;68.56;73828.63;4918213;28;108777;-74
2023/09/11 07:50:31;;;;;;;;;9.00;9.00;;;;;-143.90;68.16;73832.78;4917222;28;103955;-73
2023/09/11 07:52:58;;;;;;;;;8.33;8.00;;;;;-143.90;68.93;73820.38;4916930;28;102385;-74
2023/09/11 07:55:24;;;;;;;;;11.00;9.00;;;;;-143.90;68.36;73807.97;4895616;28;102899;-73
2023/09/11 07:57:53;;;;;;;;;10.00;8.00;;;;;-143.90;69.19;73791.44;4904495;28;101978;-74
2023/09/11 08:00:20;;;;;;;;;10.00;9.67;;;;;-143.90;67.00;73776.97;4899451;28;107939;-74
2023/09/11 08:02:48;;;;;;;;;8.33;8.33;;;;;-143.90;67.13;73770.78;4907371;28;102348;-74
2023/09/11 08:05:15;;;;;;;;;9.00;8.00;;;;;-143.90;68.11;73752.16;4915738;28;102326;-74
2023/09/11 08:07:41;;;;;;;;;10.00;10.00;;;;;-143.90;66.07;73741.84;4917846;28;102174;-73
2023/09/11 08:10:08;;;;;;;;;8.67;8.67;;;;;-143.90;66.91;73727.38;4917078;28;102895;-73
2023/09/11 08:12:35;;;;;;;;;5.33;5.33;;;;;-143.90;67.30;73708.78;4910592;28;102228;-73
2023/09/11 08:15:03;;;;;;;;;7.00;7.00;;;;;-143.90;66.27;73692.25;4913160;28;102081;-74
2023/09/11 08:17:30;;;;;;;;;8.33;8.33;;;;;-143.90;64.74;73692.25;4916207;28;102234;-72
2023/09/11 08:19:57;;;;;;;;;9.00;8.33;;;;;-143.90;63.95;73677.78;4918038;28;103985;-72
2023/09/11 08:22:24;;;;;;;;;9.00;9.00;;;;;-143.90;65.29;73665.38;4933565;28;102260;-73
2023/09/11 08:24:51;;;;;;;;;8.33;7.33;;;;;-143.90;61.89;73657.09;4932952;28;102058;-74
2023/09/11 08:27:18;;;;;;;;;8.00;8.00;;;;;-143.90;62.50;73642.63;4939468;28;102336;-74
2023/09/11 08:29:44;;;;;;;;;8.00;8.00;;;;;-143.90;61.82;73642.63;4936645;28;104155;-73
2023/09/11 08:32:11;;;;;;;;;9.33;8.67;;;;;-143.90;61.26;73632.31;4933987;28;102119;-73
2023/09/11 08:34:37;;;;;;;;;10.67;9.67;;;;;-143.90;60.02;73619.91;4934959;28;102236;-73
2023/09/11 08:37:04;;;;;;;;;11.00;11.00;;;;;-143.90;60.35;73626.09;4933421;28;104278;-73
2023/09/11 08:39:31;;;;;;;;;10.00;9.00;;;;;-143.90;60.49;73613.72;4940289;28;103528;-73
2023/09/11 08:41:59;;;;;;;;;7.00;7.00;;;;;-143.90;62.33;73597.16;4935298;28;102141;-73
2023/09/11 08:44:26;;;;;;;;;10.00;9.00;;;;;-143.90;59.66;73584.78;4936153;28;102002;-73
2023/09/11 08:46:58;;;;;;;;;12.00;10.33;;;;;-143.90;61.62;73566.16;4943204;28;102984;-73
2023/09/11 08:49:29;;;;;;;;;7.67;7.00;;;;;-143.90;62.95;73553.78;4935311;28;109877;-73
2023/09/11 08:51:59;;;;;;;;;8.00;8.00;;;;;-143.90;58.93;73543.44;4951700;28;102003;-73
2023/09/11 08:54:34;;;;;;;;;8.00;7.67;;;;;-143.90;61.60;73528.97;4940121;28;102250;-72
2023/09/11 08:57:03;;;;;;;;;9.00;7.33;;;;;-143.90;60.67;73522.78;4938012;28;102309;-72
2023/09/11 08:59:36;;;;;;;;;9.67;9.00;;;;;-143.90;61.40;73510.38;4934131;28;104198;-73
2023/09/11 09:02:04;;;;;;;;;7.00;7.00;;;;;-143.90;59.70;73493.84;4954744;28;102127;-73
2023/09/11 09:04:34;;;;;;;;;7.00;7.00;;;;;-143.90;59.02;73481.44;4937301;28;102448;-73
2023/09/11 09:07:01;;;;;;;;;6.33;6.00;;;;;-143.90;57.19;73475.25;4932649;28;102307;-73
2023/09/11 09:09:28;;;;;;;;;8.00;8.00;;;;;-143.90;56.16;73456.66;4929230;28;103811;-73
2023/09/11 09:11:55;;;;;;;;;10.00;8.00;;;;;-143.90;56.31;73454.59;4930762;28;102386;-73
2023/09/11 09:14:22;;;;;;;;;8.00;7.33;;;;;-143.90;58.18;73450.44;4934717;28;102384;-73
2023/09/11 09:16:49;;;;;;;;;9.33;9.33;;;;;-143.90;59.67;73429.78;4929111;28;102371;-73
2023/09/11 09:19:17;;;;;;;;;6.33;6.33;;;;;-143.90;58.57;73419.44;4930371;28;103987;-73
2023/09/11 09:22:02;;;;;;;;;7.33;7.33;;;;;-143.90;57.21;73417.38;4919159;28;102185;-74
2023/09/11 09:24:28;;;;;;;;;8.33;8.00;;;;;-143.90;57.23;73407.06;4912791;28;102040;-73
2023/09/11 09:27:00;;;;;;;;;10.00;9.33;;;;;-143.90;54.86;73388.44;4901334;28;102403;-72
2023/09/11 09:29:36;;;;;;;;;11.00;10.00;;;;;-143.90;54.43;73386.38;4908083;28;107754;-73
2023/09/11 09:32:04;;;;;;;;;10.67;10.00;;;;;-143.90;57.37;73374.00;4912922;28;102475;-73
2023/09/11 09:34:35;;;;;;;;;13.00;12.67;;;;;-143.90;57.50;73382.25;4913151;28;102255;-72
2023/09/11 09:37:02;;;;;;;;;15.33;15.00;;;;;-143.90;54.34;73382.25;4908555;28;102018;-73
2023/09/11 09:39:29;;;;;;;;;12.67;12.33;;;;;-143.90;54.52;73374.00;4902762;28;104693;-73
2023/09/11 09:42:02;;;;;;;;;12.33;12.00;;;;;-143.90;54.21;73361.59;4914467;28;102386;-74
2023/09/11 09:44:28;;;;;;;;;13.33;10.33;;;;;-143.90;55.07;73336.78;4910133;28;101859;-74
2023/09/11 09:46:55;;;;;;;;;10.00;10.00;;;;;-143.90;54.16;73332.66;4894371;28;102468;-73
2023/09/11 09:49:22;;;;;;;;;10.33;10.33;;;;;-143.90;54.36;73326.47;4914214;28;108626;-74
2023/09/11 09:51:49;;;;;;;;;13.33;13.00;;;;;-143.90;53.08;73328.53;4913123;28;102357;-74
2023/09/11 09:54:15;;;;;;;;;12.33;12.00;;;;;-143.90;54.63;73303.72;4911375;28;102185;-73
2023/09/11 09:56:42;;;;;;;;;11.00;11.00;;;;;-143.90;52.99;73299.59;4915844;28;102180;-73
2023/09/11 09:59:09;;;;;;;;;13.00;11.33;;;;;-143.90;52.88;73307.84;4912585;28;103584;-74
2023/09/11 10:01:46;;;;;;;;;14.00;11.67;;;;;-143.90;52.74;73295.47;4914864;28;102254;-74
2023/09/11 10:04:16;;;;;;;;;11.33;10.67;;;;;-143.90;52.70;73291.31;4912132;28;102301;-74
2023/09/11 10:06:54;;;;;;;;;14.67;13.67;;;;;-143.90;53.45;73295.47;4912092;28;102326;-73
2023/09/11 10:09:21;;;;;;;;;14.00;13.00;;;;;-143.90;53.24;73283.06;4910766;28;108609;-74
2023/09/11 10:11:50;;;;;;;;;13.67;12.67;;;;;-143.90;52.11;73270.66;4914644;28;102072;-73
2023/09/11 10:14:18;;;;;;;;;13.33;13.00;;;;;-143.90;51.59;73262.41;4910413;28;102167;-73
2023/09/11 10:16:46;;;;;;;;;12.00;11.67;;;;;-143.90;52.24;73254.13;4915742;28;102029;-72
2023/09/11 10:19:13;;;;;;;;;13.00;12.67;;;;;-143.90;51.26;73245.88;4908535;28;104258;-73
2023/09/11 10:21:39;;;;;;;;;12.00;12.00;;;;;-143.90;50.84;73233.47;4920827;28;102129;-73
2023/09/11 10:24:08;;;;;;;;;13.67;13.33;;;;;-143.90;51.05;73227.28;4901333;28;102054;-74
2023/09/11 10:26:56;;;;;;;;;14.67;14.00;;;;;-143.90;48.89;73214.88;4924992;28;101962;-73
2023/09/11 10:29:43;;;;;;;;;11.67;11.00;;;;;-143.90;48.66;73204.53;4932474;28;108561;-72
2023/09/11 10:32:18;;;;;;;;;11.00;11.00;;;;;-143.90;49.30;73196.28;4926531;28;102204;-73
2023/09/11 10:34:48;;;;;;;;;10.00;10.00;;;;;-143.90;49.21;73196.28;4929945;28;102579;-73
2023/09/11 10:37:16;;;;;;;;;13.33;11.00;;;;;-143.90;48.67;73196.28;4936456;28;105943;-74
2023/09/11 10:39:43;;;;;;;;;14.00;14.00;;;;;-143.90;47.32;73214.88;4932970;28;104006;-74
2023/09/11 10:42:10;;;;;;;;;13.00;12.67;;;;;-143.90;48.71;73200.41;4904044;28;102708;-73
2023/09/11 10:44:37;;;;;;;;;13.00;13.00;;;;;-143.90;48.78;73192.16;4926392;28;102358;-73
2023/09/11 10:47:04;;;;;;;;;12.00;11.67;;;;;-143.90;46.94;73188.00;4883201;28;102957;-73
2023/09/11 10:49:37;;;;;;;;;17.00;15.50;;;;;-143.90;48.24;73225.19;4915594;28;104071;-73
2023/09/11 10:52:08;;;;;;;;;17.00;16.00;;;;;-143.90;46.89;73208.69;4931906;28;102262;-73
2023/09/11 10:54:35;;;;;;;;;13.00;11.67;;;;;-143.90;47.66;73190.06;4909488;28;102074;-73
2023/09/11 10:57:02;;;;;;;;;10.67;10.00;;;;;-143.90;48.08;73163.22;4914474;28;102459;-74
2023/09/11 10:59:31;;;;;;;;;10.00;10.00;;;;;-143.90;48.22;73161.16;4926265;28;103992;-73
2023/09/11 11:01:58;;;;;;;;;13.00;12.00;;;;;-143.90;49.25;73165.28;4908343;28;102335;-73
2023/09/11 11:04:25;;;;;;;;;11.33;10.67;;;;;-143.90;48.26;73157.00;4921756;28;102272;-72
2023/09/11 11:06:59;;;;;;;;;10.33;10.33;;;;;-143.90;45.73;73142.56;4916696;28;103200;-73
2023/09/11 11:09:33;;;;;;;;;10.67;10.67;;;;;-143.90;46.47;73138.41;4924508;28;108589;-73